地図

経路データ

SID SEASON NUMBER BASIN SUBBASIN NAME ISO_TIME NATURE LAT LON WMO_WIND WMO_PRES WMO_AGENCY TRACK_TYPE DIST2LAND LANDFALL IFLAG USA_AGENCY USA_ATCF_ID USA_LAT USA_LON USA_RECORD USA_STATUS USA_WIND USA_PRES USA_SSHS USA_R34_NE USA_R34_SE USA_R34_SW USA_R34_NW USA_R50_NE USA_R50_SE USA_R50_SW USA_R50_NW USA_R64_NE USA_R64_SE USA_R64_SW USA_R64_NW USA_POCI USA_ROCI USA_RMW USA_EYE TOKYO_LAT TOKYO_LON TOKYO_GRADE TOKYO_WIND TOKYO_PRES TOKYO_R50_DIR TOKYO_R50_LONG TOKYO_R50_SHORT TOKYO_R30_DIR TOKYO_R30_LONG TOKYO_R30_SHORT TOKYO_LAND CMA_LAT CMA_LON CMA_CAT CMA_WIND CMA_PRES HKO_LAT HKO_LON HKO_CAT HKO_WIND HKO_PRES NEWDELHI_LAT NEWDELHI_LON NEWDELHI_GRADE NEWDELHI_WIND NEWDELHI_PRES NEWDELHI_CI NEWDELHI_DP NEWDELHI_POCI REUNION_LAT REUNION_LON REUNION_TYPE REUNION_WIND REUNION_PRES REUNION_TNUM REUNION_CI REUNION_RMW REUNION_R34_NE REUNION_R34_SE REUNION_R34_SW REUNION_R34_NW REUNION_R50_NE REUNION_R50_SE REUNION_R50_SW REUNION_R50_NW REUNION_R64_NE REUNION_R64_SE REUNION_R64_SW REUNION_R64_NW BOM_LAT BOM_LON BOM_TYPE BOM_WIND BOM_PRES BOM_TNUM BOM_CI BOM_RMW BOM_R34_NE BOM_R34_SE BOM_R34_SW BOM_R34_NW BOM_R50_NE BOM_R50_SE BOM_R50_SW BOM_R50_NW BOM_R64_NE BOM_R64_SE BOM_R64_SW BOM_R64_NW BOM_ROCI BOM_POCI BOM_EYE BOM_POS_METHOD BOM_PRES_METHOD NADI_LAT NADI_LON NADI_CAT NADI_WIND NADI_PRES WELLINGTON_LAT WELLINGTON_LON WELLINGTON_WIND WELLINGTON_PRES DS824_LAT DS824_LON DS824_STAGE DS824_WIND DS824_PRES TD9636_LAT TD9636_LON TD9636_STAGE TD9636_WIND TD9636_PRES TD9635_LAT TD9635_LON TD9635_WIND TD9635_PRES TD9635_ROCI NEUMANN_LAT NEUMANN_LON NEUMANN_CLASS NEUMANN_WIND NEUMANN_PRES MLC_LAT MLC_LON MLC_CLASS MLC_WIND MLC_PRES USA_GUST BOM_GUST BOM_GUST_PER REUNION_GUST REUNION_GUST_PER USA_SEAHGT USA_SEARAD_NE USA_SEARAD_SE USA_SEARAD_SW USA_SEARAD_NW STORM_SPEED STORM_DIR
1862345S07089 1863 30 SI MM NOT_NAMED 1862-12-10 18:00:00 NR -7.00000 89.4000 main 1209 1209 __________O___ -1 -7.00000 89.4000 7 6 248
1862345S07089 1863 30 SI MM NOT_NAMED 1862-12-10 21:00:00 NR -7.11889 89.0985 main 1244 1244 __________P___ -1 -7.11889 89.0985 7 6 248
1862345S07089 1863 30 SI MM NOT_NAMED 1862-12-11 00:00:00 NR -7.24014 88.7976 main 1278 1278 __________P___ -1 -7.24014 88.7976 7 6 247
1862345S07089 1863 30 SI MM NOT_NAMED 1862-12-11 03:00:00 NR -7.36632 88.4978 main 1318 1318 __________P___ -1 -7.36632 88.4978 7 6 246
1862345S07089 1863 30 SI MM NOT_NAMED 1862-12-11 06:00:00 NR -7.50000 88.2000 main 1352 1352 __________O___ -1 -7.50000 88.2000 7 7 245
1862345S07089 1863 30 SI MM NOT_NAMED 1862-12-11 09:00:00 NR -7.64279 87.9056 main 1386 1386 __________P___ -1 -7.64279 87.9056 7 6 243
1862345S07089 1863 30 SI MM NOT_NAMED 1862-12-11 12:00:00 NR -7.79248 87.6200 main 1426 1426 __________P___ -1 -7.79248 87.6200 7 6 241
1862345S07089 1863 30 SI MM NOT_NAMED 1862-12-11 15:00:00 NR -7.94593 87.3494 main 1460 1460 __________P___ -1 -7.94593 87.3494 7 6 239
1862345S07089 1863 30 SI MM NOT_NAMED 1862-12-11 18:00:00 NR -8.10000 87.1000 main 1491 1491 __________O___ -1 -8.10000 87.1000 7 5 238
1862345S07089 1863 30 SI MM NOT_NAMED 1862-12-11 21:00:00 NR -8.22959 86.8823 main 1515 1515 __________P___ -1 -8.22959 86.8823 7 5 237
1862345S07089 1863 30 SI MM NOT_NAMED 1862-12-12 00:00:00 NR -8.36237 86.6847 main 1546 1546 __________P___ -1 -8.36237 86.6847 7 5 233
1862345S07089 1863 30 SI MM NOT_NAMED 1862-12-12 03:00:00 NR -8.51397 86.4948 main 1570 1570 __________P___ -1 -8.51397 86.4948 7 5 228
1862345S07089 1863 30 SI MM NOT_NAMED 1862-12-12 06:00:00 NR -8.70000 86.3000 main 1601 1601 __________O___ -1 -8.70000 86.3000 7 6 224
1862345S07089 1863 30 SI MM NOT_NAMED 1862-12-12 09:00:00 NR -8.94311 86.0822 main 1631 1631 __________P___ -1 -8.94311 86.0822 7 7 220
1862345S07089 1863 30 SI MM NOT_NAMED 1862-12-12 12:00:00 NR -9.21998 85.8575 main 1666 1666 __________P___ -1 -9.21998 85.8575 7 7 218
1862345S07089 1863 30 SI MM NOT_NAMED 1862-12-12 15:00:00 NR -9.51186 85.6291 main 1711 1711 __________P___ -1 -9.51186 85.6291 7 7 218
1862345S07089 1863 30 SI MM NOT_NAMED 1862-12-12 18:00:00 NR -9.80000 85.4000 main 1747 1747 __________O___ -1 -9.80000 85.4000 7 7 220
1862345S07089 1863 30 SI MM NOT_NAMED 1862-12-12 21:00:00 NR -10.0653 85.1588 main 1783 1783 __________P___ -1 -10.0653 85.1588 7 7 222
1862345S07089 1863 30 SI MM NOT_NAMED 1862-12-13 00:00:00 NR -10.3225 84.9200 main 1823 1823 __________P___ -1 -10.3225 84.9200 7 7 222
1862345S07089 1863 30 SI MM NOT_NAMED 1862-12-13 03:00:00 NR -10.5685 84.6963 main 1859 1859 __________P___ -1 -10.5685 84.6963 7 6 221
1862345S07089 1863 30 SI MM NOT_NAMED 1862-12-13 06:00:00 NR -10.8000 84.5000 main 1890 1890 __________O___ -1 -10.8000 84.5000 7 6 218
1862345S07089 1863 30 SI MM NOT_NAMED 1862-12-13 09:00:00 NR -11.0102 84.3420 main 1920 1920 __________P___ -1 -11.0102 84.3420 7 5 215
1862345S07089 1863 30 SI MM NOT_NAMED 1862-12-13 12:00:00 NR -11.2074 84.2123 main 1941 1941 __________P___ -1 -11.2074 84.2123 7 5 211
1862345S07089 1863 30 SI MM NOT_NAMED 1862-12-13 15:00:00 NR -11.4009 84.1014 main 1962 1962 __________P___ -1 -11.4009 84.1014 7 4 208
1862345S07089 1863 30 SI MM NOT_NAMED 1862-12-13 18:00:00 NR -11.6000 84.0000 main 1984 1984 __________O___ -1 -11.6000 84.0000 7 5 207
1862345S07089 1863 30 SI MM NOT_NAMED 1862-12-13 21:00:00 NR -11.8097 83.8887 main 2005 2005 __________P___ -1 -11.8097 83.8887 7 5 206
1862345S07089 1863 30 SI MM NOT_NAMED 1862-12-14 00:00:00 NR -12.0275 83.7849 main 2026 2026 __________P___ -1 -12.0275 83.7849 7 5 204
1862345S07089 1863 30 SI MM NOT_NAMED 1862-12-14 03:00:00 NR -12.2566 83.6887 main 2054 2054 __________P___ -1 -12.2566 83.6887 7 5 201
1862345S07089 1863 30 SI MM NOT_NAMED 1862-12-14 06:00:00 NR -12.5000 83.6000 main 2076 2076 __________O___ -1 -12.5000 83.6000 7 5 199
1862345S07089 1863 30 SI MM NOT_NAMED 1862-12-14 09:00:00 NR -12.7566 83.5137 main 2104 2104 __________P___ -1 -12.7566 83.5137 7 6 197
1862345S07089 1863 30 SI MM NOT_NAMED 1862-12-14 12:00:00 NR -13.0275 83.4350 main 2125 2125 __________P___ -1 -13.0275 83.4350 7 6 195
1862345S07089 1863 30 SI MM NOT_NAMED 1862-12-14 15:00:00 NR -13.3097 83.3637 main 2145 2145 __________P___ -1 -13.3097 83.3637 7 6 193
1862345S07089 1863 30 SI MM NOT_NAMED 1862-12-14 18:00:00 NR -13.6000 83.3000 main 2174 2174 __________O___ -1 -13.6000 83.3000 7 6 191
1862345S07089 1863 30 SI MM NOT_NAMED 1862-12-14 21:00:00 NR -13.8956 83.2435 main 2202 2202 __________P___ -1 -13.8956 83.2435 7 6 190
1862345S07089 1863 30 SI MM NOT_NAMED 1862-12-15 00:00:00 NR -14.1950 83.1926 main 2223 2223 __________P___ -1 -14.1950 83.1926 7 6 189
1862345S07089 1863 30 SI MM NOT_NAMED 1862-12-15 03:00:00 NR -14.4969 83.1454 main 2252 2252 __________P___ -1 -14.4969 83.1454 7 6 188
1862345S07089 1863 30 SI MM NOT_NAMED 1862-12-15 06:00:00 NR -14.8000 83.1000 main 2273 __________O___ -1 -14.8000 83.1000 7 6 188

IBTrACS Databaseについて

本データベースは、米国NOAAが公開する1842年以降の世界の熱帯低気圧のベストトラックデータアーカイブInternational Best Track Archive for Climate Stewardship (IBTrACS)を、ウェブで閲覧しやすい形式に変換したものです。

最終更新日:2021-11-26